sensor_id;sensor_type;location;lat;lon;timestamp;temperature;humidity
57444;DHT22;43289;52.962;6.196;2024-03-23T01:39:38;6.70;99.90
57444;DHT22;43289;52.962;6.196;2024-03-23T01:42:04;5.70;99.90
57444;DHT22;43289;52.962;6.196;2024-03-23T01:44:31;5.60;99.90
57444;DHT22;43289;52.962;6.196;2024-03-23T01:46:56;5.60;99.90
57444;DHT22;43289;52.962;6.196;2024-03-23T01:49:22;5.50;99.90
57444;DHT22;43289;52.962;6.196;2024-03-23T01:51:48;5.50;99.90
57444;DHT22;43289;52.962;6.196;2024-03-23T01:54:14;5.60;99.90
57444;DHT22;43289;52.962;6.196;2024-03-23T01:56:39;5.40;99.90
57444;DHT22;43289;52.962;6.196;2024-03-23T01:59:05;5.40;99.90
57444;DHT22;43289;52.962;6.196;2024-03-23T02:01:37;5.40;99.90
57444;DHT22;43289;52.962;6.196;2024-03-23T02:04:03;5.40;99.90
57444;DHT22;43289;52.962;6.196;2024-03-23T02:06:29;5.40;99.90
57444;DHT22;43289;52.962;6.196;2024-03-23T02:08:55;5.40;99.90
57444;DHT22;43289;52.962;6.196;2024-03-23T02:11:21;5.30;99.90
57444;DHT22;43289;52.962;6.196;2024-03-23T02:16:12;5.30;99.90
57444;DHT22;43289;52.962;6.196;2024-03-23T02:18:41;5.30;99.90
57444;DHT22;43289;52.962;6.196;2024-03-23T02:21:07;5.20;99.90
57444;DHT22;43289;52.962;6.196;2024-03-23T02:23:32;5.20;99.90
57444;DHT22;43289;52.962;6.196;2024-03-23T02:25:58;5.10;99.90
57444;DHT22;43289;52.962;6.196;2024-03-23T02:28:25;5.10;99.90
57444;DHT22;43289;52.962;6.196;2024-03-23T02:30:52;5.20;99.90
57444;DHT22;43289;52.962;6.196;2024-03-23T02:33:18;5.10;99.90
57444;DHT22;43289;52.962;6.196;2024-03-23T02:35:45;5.10;99.90
57444;DHT22;43289;52.962;6.196;2024-03-23T02:38:10;5.10;99.90
57444;DHT22;43289;52.962;6.196;2024-03-23T02:40:36;5.20;99.90
57444;DHT22;43289;52.962;6.196;2024-03-23T02:43:03;5.10;99.90
57444;DHT22;43289;52.962;6.196;2024-03-23T02:45:29;5.20;99.90
57444;DHT22;43289;52.962;6.196;2024-03-23T02:47:55;5.20;99.90
57444;DHT22;43289;52.962;6.196;2024-03-23T02:50:21;5.20;99.90
57444;DHT22;43289;52.962;6.196;2024-03-23T02:52:47;5.10;99.90
57444;DHT22;43289;52.962;6.196;2024-03-23T02:55:13;5.10;99.90
57444;DHT22;43289;52.962;6.196;2024-03-23T02:57:39;5.10;99.90
57444;DHT22;43289;52.962;6.196;2024-03-23T03:00:05;5.10;99.90
57444;DHT22;43289;52.962;6.196;2024-03-23T03:02:32;5.10;99.90
57444;DHT22;43289;52.962;6.196;2024-03-23T03:04:58;5.10;99.90
57444;DHT22;43289;52.962;6.196;2024-03-23T03:07:23;5.10;99.90
57444;DHT22;43289;52.962;6.196;2024-03-23T03:09:49;5.10;99.90
57444;DHT22;43289;52.962;6.196;2024-03-23T03:12:15;5.20;99.90
57444;DHT22;43289;52.962;6.196;2024-03-23T03:14:40;5.00;99.90
57444;DHT22;43289;52.962;6.196;2024-03-23T03:17:06;5.10;99.90
57444;DHT22;43289;52.962;6.196;2024-03-23T03:19:32;5.10;99.90
57444;DHT22;43289;52.962;6.196;2024-03-23T03:21:57;5.10;99.90
57444;DHT22;43289;52.962;6.196;2024-03-23T03:24:23;5.00;99.90
57444;DHT22;43289;52.962;6.196;2024-03-23T03:26:49;5.00;99.90
57444;DHT22;43289;52.962;6.196;2024-03-23T03:29:15;5.00;99.90
57444;DHT22;43289;52.962;6.196;2024-03-23T03:31:41;5.00;99.90
57444;DHT22;43289;52.962;6.196;2024-03-23T03:34:08;4.80;99.90
57444;DHT22;43289;52.962;6.196;2024-03-23T03:36:33;4.90;99.90
57444;DHT22;43289;52.962;6.196;2024-03-23T03:38:59;4.80;99.90
57444;DHT22;43289;52.962;6.196;2024-03-23T03:41:25;4.90;99.90
57444;DHT22;43289;52.962;6.196;2024-03-23T03:43:51;4.80;99.90
57444;DHT22;43289;52.962;6.196;2024-03-23T03:46:17;4.90;99.90
57444;DHT22;43289;52.962;6.196;2024-03-23T03:48:42;4.90;99.90
57444;DHT22;43289;52.962;6.196;2024-03-23T03:51:10;4.90;99.90
57444;DHT22;43289;52.962;6.196;2024-03-23T03:53:36;4.90;99.90
57444;DHT22;43289;52.962;6.196;2024-03-23T03:56:02;4.90;99.90
57444;DHT22;43289;52.962;6.196;2024-03-23T03:58:28;5.00;99.90
57444;DHT22;43289;52.962;6.196;2024-03-23T04:00:53;5.00;99.90
57444;DHT22;43289;52.962;6.196;2024-03-23T04:03:19;5.00;99.90
57444;DHT22;43289;52.962;6.196;2024-03-23T04:05:54;5.00;99.90
57444;DHT22;43289;52.962;6.196;2024-03-23T04:08:20;5.00;99.90
57444;DHT22;43289;52.962;6.196;2024-03-23T04:10:47;4.90;99.90
57444;DHT22;43289;52.962;6.196;2024-03-23T04:13:13;5.00;99.90
57444;DHT22;43289;52.962;6.196;2024-03-23T04:15:39;4.90;99.90
57444;DHT22;43289;52.962;6.196;2024-03-23T04:18:05;4.90;99.90
57444;DHT22;43289;52.962;6.196;2024-03-23T04:20:30;4.90;99.90
57444;DHT22;43289;52.962;6.196;2024-03-23T04:22:58;4.90;99.90
57444;DHT22;43289;52.962;6.196;2024-03-23T04:25:23;4.90;99.90
57444;DHT22;43289;52.962;6.196;2024-03-23T04:27:49;4.90;99.90
57444;DHT22;43289;52.962;6.196;2024-03-23T04:30:15;4.90;99.90
57444;DHT22;43289;52.962;6.196;2024-03-23T04:32:41;4.90;99.90
57444;DHT22;43289;52.962;6.196;2024-03-23T04:35:07;4.90;99.90
57444;DHT22;43289;52.962;6.196;2024-03-23T04:37:39;4.90;99.90
57444;DHT22;43289;52.962;6.196;2024-03-23T04:40:08;4.90;99.90
57444;DHT22;43289;52.962;6.196;2024-03-23T04:42:34;4.90;99.90
57444;DHT22;43289;52.962;6.196;2024-03-23T04:45:00;4.90;99.90
57444;DHT22;43289;52.962;6.196;2024-03-23T04:47:25;4.90;99.90
57444;DHT22;43289;52.962;6.196;2024-03-23T04:49:51;4.80;99.90
57444;DHT22;43289;52.962;6.196;2024-03-23T04:52:17;4.80;99.90
57444;DHT22;43289;52.962;6.196;2024-03-23T04:54:43;4.90;99.90
57444;DHT22;43289;52.962;6.196;2024-03-23T04:59:36;4.80;99.90
57444;DHT22;43289;52.962;6.196;2024-03-23T05:02:02;4.70;99.90
57444;DHT22;43289;52.962;6.196;2024-03-23T05:04:28;4.70;99.90
57444;DHT22;43289;52.962;6.196;2024-03-23T05:06:54;4.60;99.90
57444;DHT22;43289;52.962;6.196;2024-03-23T05:09:19;4.60;99.90
57444;DHT22;43289;52.962;6.196;2024-03-23T05:11:45;4.60;99.90
57444;DHT22;43289;52.962;6.196;2024-03-23T05:14:13;4.70;99.90
57444;DHT22;43289;52.962;6.196;2024-03-23T05:16:39;4.60;99.90
57444;DHT22;43289;52.962;6.196;2024-03-23T05:19:05;4.50;99.90
57444;DHT22;43289;52.962;6.196;2024-03-23T05:21:30;4.60;99.90
57444;DHT22;43289;52.962;6.196;2024-03-23T05:23:56;4.60;99.90
57444;DHT22;43289;52.962;6.196;2024-03-23T05:26:22;4.70;99.90
57444;DHT22;43289;52.962;6.196;2024-03-23T05:28:48;4.60;99.90
57444;DHT22;43289;52.962;6.196;2024-03-23T05:31:26;4.70;99.90
57444;DHT22;43289;52.962;6.196;2024-03-23T05:33:52;4.70;99.90
57444;DHT22;43289;52.962;6.196;2024-03-23T05:36:18;4.80;99.90
57444;DHT22;43289;52.962;6.196;2024-03-23T05:38:44;4.90;99.90
57444;DHT22;43289;52.962;6.196;2024-03-23T05:41:09;5.00;99.90
57444;DHT22;43289;52.962;6.196;2024-03-23T05:43:35;5.10;99.90
57444;DHT22;43289;52.962;6.196;2024-03-23T05:46:01;5.10;99.90
57444;DHT22;43289;52.962;6.196;2024-03-23T05:48:27;5.10;99.90
57444;DHT22;43289;52.962;6.196;2024-03-23T05:50:53;5.20;99.90
57444;DHT22;43289;52.962;6.196;2024-03-23T05:53:19;5.20;99.90
57444;DHT22;43289;52.962;6.196;2024-03-23T05:55:49;5.10;99.90
57444;DHT22;43289;52.962;6.196;2024-03-23T05:58:16;5.20;99.90
57444;DHT22;43289;52.962;6.196;2024-03-23T06:00:42;5.40;99.90
57444;DHT22;43289;52.962;6.196;2024-03-23T06:03:09;5.20;99.90
57444;DHT22;43289;52.962;6.196;2024-03-23T06:05:35;5.40;99.90
57444;DHT22;43289;52.962;6.196;2024-03-23T06:08:01;5.50;99.90
57444;DHT22;43289;52.962;6.196;2024-03-23T06:10:27;5.50;99.90
57444;DHT22;43289;52.962;6.196;2024-03-23T06:12:53;5.50;99.90
57444;DHT22;43289;52.962;6.196;2024-03-23T06:15:19;5.50;99.90
57444;DHT22;43289;52.962;6.196;2024-03-23T06:17:45;5.40;99.90
57444;DHT22;43289;52.962;6.196;2024-03-23T06:20:11;5.40;99.90
57444;DHT22;43289;52.962;6.196;2024-03-23T06:22:38;5.30;99.90
57444;DHT22;43289;52.962;6.196;2024-03-23T06:25:04;5.20;99.90
57444;DHT22;43289;52.962;6.196;2024-03-23T06:27:30;5.30;99.90
57444;DHT22;43289;52.962;6.196;2024-03-23T06:29:58;5.30;99.90
57444;DHT22;43289;52.962;6.196;2024-03-23T06:32:23;5.30;99.90
57444;DHT22;43289;52.962;6.196;2024-03-23T06:34:49;5.30;99.90
57444;DHT22;43289;52.962;6.196;2024-03-23T06:37:15;5.30;99.90
57444;DHT22;43289;52.962;6.196;2024-03-23T06:39:40;5.30;99.90
57444;DHT22;43289;52.962;6.196;2024-03-23T06:42:06;5.40;99.90
57444;DHT22;43289;52.962;6.196;2024-03-23T06:44:33;5.40;99.90
57444;DHT22;43289;52.962;6.196;2024-03-23T06:54:17;5.50;99.90
57444;DHT22;43289;52.962;6.196;2024-03-23T06:59:12;6.10;99.90
57444;DHT22;43289;52.962;6.196;2024-03-23T08:13:24;6.20;99.90
57444;DHT22;43289;52.962;6.196;2024-03-23T08:15:49;5.80;99.90
57444;DHT22;43289;52.962;6.196;2024-03-23T08:18:15;5.70;99.90
57444;DHT22;43289;52.962;6.196;2024-03-23T08:20:43;5.70;99.90
57444;DHT22;43289;52.962;6.196;2024-03-23T08:23:09;5.90;99.90
57444;DHT22;43289;52.962;6.196;2024-03-23T08:25:35;6.00;99.90
57444;DHT22;43289;52.962;6.196;2024-03-23T08:28:00;6.10;99.90
57444;DHT22;43289;52.962;6.196;2024-03-23T10:29:10;6.20;99.90
57444;DHT22;43289;52.962;6.196;2024-03-23T10:31:38;5.40;99.90
57444;DHT22;43289;52.962;6.196;2024-03-23T10:34:06;5.00;99.90
57444;DHT22;43289;52.962;6.196;2024-03-23T10:36:34;4.70;99.90
57444;DHT22;43289;52.962;6.196;2024-03-23T10:39:02;4.60;99.90
57444;DHT22;43289;52.962;6.196;2024-03-23T10:41:28;4.70;99.90
